Portage, Wisconsin
Current Conditions -  °F | °C
As of 8:15 AM on Saturday 25 Oct 2014 (Local Time) from KDLL Reporting Station
Clear Clear  
Wind Chill: 53°   Ceiling: Unl
Heat Index: 53°   Visibility: 10mi
Dew Point: 46°   Wind: 6mph
Humidity: 76%   Direction: 270°W
Pressure: 29.93"   Gusts: NA
Location:  43.54°N, 89.46°W
Report Text: KDLL 251315Z AUTO 27005KT 10SM CLR 12/08 A2993 RMK AO2 T01150075
Loading
Personal Weather Stations






























Interactive Weather Map
Tropical Storm Tracking
New forecast layout! Learn more

10-Day Weather Forecast

Advertisements
Track Severe Weather on mobile